sensor_id;sensor_type;location;lat;lon;timestamp;temperature;humidity
7349;DHT22;13010;-33.424;-70.614;2023-04-07T00:00:14;16.20;99.90
7349;DHT22;13010;-33.424;-70.614;2023-04-07T00:03:05;16.10;99.90
7349;DHT22;13010;-33.424;-70.614;2023-04-07T00:05:53;16.00;99.90
7349;DHT22;13010;-33.424;-70.614;2023-04-07T00:08:42;15.80;99.90
7349;DHT22;13010;-33.424;-70.614;2023-04-07T00:11:34;15.60;99.90
7349;DHT22;13010;-33.424;-70.614;2023-04-07T00:14:23;15.40;99.90
7349;DHT22;13010;-33.424;-70.614;2023-04-07T00:17:12;15.30;99.90
7349;DHT22;13010;-33.424;-70.614;2023-04-07T00:20:02;15.20;99.90
7349;DHT22;13010;-33.424;-70.614;2023-04-07T00:22:51;15.20;99.90
7349;DHT22;13010;-33.424;-70.614;2023-04-07T00:25:39;15.10;99.90
7349;DHT22;13010;-33.424;-70.614;2023-04-07T00:28:29;15.00;99.90
7349;DHT22;13010;-33.424;-70.614;2023-04-07T00:31:18;15.00;99.90
7349;DHT22;13010;-33.424;-70.614;2023-04-07T00:34:06;14.90;99.90
7349;DHT22;13010;-33.424;-70.614;2023-04-07T00:36:57;14.80;99.90
7349;DHT22;13010;-33.424;-70.614;2023-04-07T00:39:45;14.70;99.90
7349;DHT22;13010;-33.424;-70.614;2023-04-07T00:42:34;14.70;99.90
7349;DHT22;13010;-33.424;-70.614;2023-04-07T00:45:23;14.80;99.90
7349;DHT22;13010;-33.424;-70.614;2023-04-07T00:48:12;14.70;99.90
7349;DHT22;13010;-33.424;-70.614;2023-04-07T00:51:01;14.60;99.90
7349;DHT22;13010;-33.424;-70.614;2023-04-07T00:53:52;14.60;99.90
7349;DHT22;13010;-33.424;-70.614;2023-04-07T00:56:42;14.60;99.90
7349;DHT22;13010;-33.424;-70.614;2023-04-07T00:59:31;14.60;99.90
7349;DHT22;13010;-33.424;-70.614;2023-04-07T01:02:24;14.60;99.90
7349;DHT22;13010;-33.424;-70.614;2023-04-07T01:05:19;14.60;99.90
7349;DHT22;13010;-33.424;-70.614;2023-04-07T01:08:14;14.70;99.90
7349;DHT22;13010;-33.424;-70.614;2023-04-07T01:11:07;14.70;99.90
7349;DHT22;13010;-33.424;-70.614;2023-04-07T01:14:00;14.60;99.90
7349;DHT22;13010;-33.424;-70.614;2023-04-07T01:16:50;14.30;99.90
7349;DHT22;13010;-33.424;-70.614;2023-04-07T01:19:42;14.10;99.90
7349;DHT22;13010;-33.424;-70.614;2023-04-07T01:22:42;14.00;99.90
7349;DHT22;13010;-33.424;-70.614;2023-04-07T01:25:59;14.00;99.90
7349;DHT22;13010;-33.424;-70.614;2023-04-07T01:29:28;14.10;99.90
7349;DHT22;13010;-33.424;-70.614;2023-04-07T01:32:19;14.10;99.90
7349;DHT22;13010;-33.424;-70.614;2023-04-07T01:35:11;14.30;99.90
7349;DHT22;13010;-33.424;-70.614;2023-04-07T01:38:00;14.20;99.90
7349;DHT22;13010;-33.424;-70.614;2023-04-07T01:40:53;14.00;99.90
7349;DHT22;13010;-33.424;-70.614;2023-04-07T01:43:43;13.90;99.90
7349;DHT22;13010;-33.424;-70.614;2023-04-07T01:46:35;13.70;99.90
7349;DHT22;13010;-33.424;-70.614;2023-04-07T01:49:26;13.60;99.90
7349;DHT22;13010;-33.424;-70.614;2023-04-07T01:52:28;13.40;99.90
7349;DHT22;13010;-33.424;-70.614;2023-04-07T01:55:38;13.20;99.90
7349;DHT22;13010;-33.424;-70.614;2023-04-07T01:58:30;13.00;99.90
7349;DHT22;13010;-33.424;-70.614;2023-04-07T02:01:20;13.00;99.90
7349;DHT22;13010;-33.424;-70.614;2023-04-07T02:04:14;12.90;99.90
7349;DHT22;13010;-33.424;-70.614;2023-04-07T02:07:09;13.10;99.90
7349;DHT22;13010;-33.424;-70.614;2023-04-07T02:10:01;13.00;99.90
7349;DHT22;13010;-33.424;-70.614;2023-04-07T02:12:51;13.10;99.90
7349;DHT22;13010;-33.424;-70.614;2023-04-07T02:15:42;13.20;99.90
7349;DHT22;13010;-33.424;-70.614;2023-04-07T02:18:32;13.20;99.90
7349;DHT22;13010;-33.424;-70.614;2023-04-07T02:21:23;13.10;99.90
7349;DHT22;13010;-33.424;-70.614;2023-04-07T02:24:13;12.90;99.90
7349;DHT22;13010;-33.424;-70.614;2023-04-07T02:27:02;12.80;99.90
7349;DHT22;13010;-33.424;-70.614;2023-04-07T02:29:51;13.00;99.90
7349;DHT22;13010;-33.424;-70.614;2023-04-07T02:32:40;13.10;99.90
7349;DHT22;13010;-33.424;-70.614;2023-04-07T02:35:32;13.10;99.90
7349;DHT22;13010;-33.424;-70.614;2023-04-07T02:38:23;13.10;99.90
7349;DHT22;13010;-33.424;-70.614;2023-04-07T02:41:12;13.10;99.90
7349;DHT22;13010;-33.424;-70.614;2023-04-07T02:44:00;13.10;99.90
7349;DHT22;13010;-33.424;-70.614;2023-04-07T02:46:49;13.00;99.90
7349;DHT22;13010;-33.424;-70.614;2023-04-07T02:49:38;13.00;99.90
7349;DHT22;13010;-33.424;-70.614;2023-04-07T02:52:27;13.10;99.90
7349;DHT22;13010;-33.424;-70.614;2023-04-07T02:55:18;13.00;99.90
7349;DHT22;13010;-33.424;-70.614;2023-04-07T02:58:07;12.90;99.90
7349;DHT22;13010;-33.424;-70.614;2023-04-07T03:00:56;12.80;99.90
7349;DHT22;13010;-33.424;-70.614;2023-04-07T03:03:45;12.70;99.90
7349;DHT22;13010;-33.424;-70.614;2023-04-07T03:06:34;12.70;99.90
7349;DHT22;13010;-33.424;-70.614;2023-04-07T03:09:24;12.60;99.90
7349;DHT22;13010;-33.424;-70.614;2023-04-07T03:12:14;12.60;99.90
7349;DHT22;13010;-33.424;-70.614;2023-04-07T03:15:04;12.70;99.90
7349;DHT22;13010;-33.424;-70.614;2023-04-07T03:17:53;12.90;99.90
7349;DHT22;13010;-33.424;-70.614;2023-04-07T03:20:42;12.90;99.90
7349;DHT22;13010;-33.424;-70.614;2023-04-07T03:23:32;12.90;99.90
7349;DHT22;13010;-33.424;-70.614;2023-04-07T03:26:21;12.90;99.90
7349;DHT22;13010;-33.424;-70.614;2023-04-07T03:29:12;12.90;99.90
7349;DHT22;13010;-33.424;-70.614;2023-04-07T03:32:01;12.80;99.90
7349;DHT22;13010;-33.424;-70.614;2023-04-07T03:34:50;12.80;99.90
7349;DHT22;13010;-33.424;-70.614;2023-04-07T03:37:39;12.60;99.90
7349;DHT22;13010;-33.424;-70.614;2023-04-07T03:40:28;12.50;99.90
7349;DHT22;13010;-33.424;-70.614;2023-04-07T03:43:18;12.50;99.90
7349;DHT22;13010;-33.424;-70.614;2023-04-07T03:46:09;12.50;99.90
7349;DHT22;13010;-33.424;-70.614;2023-04-07T03:48:58;12.40;99.90
7349;DHT22;13010;-33.424;-70.614;2023-04-07T03:51:46;12.30;99.90
7349;DHT22;13010;-33.424;-70.614;2023-04-07T03:54:35;12.30;99.90
7349;DHT22;13010;-33.424;-70.614;2023-04-07T03:57:23;12.10;99.90
7349;DHT22;13010;-33.424;-70.614;2023-04-07T04:00:13;12.00;99.90
7349;DHT22;13010;-33.424;-70.614;2023-04-07T04:03:04;11.90;99.90
7349;DHT22;13010;-33.424;-70.614;2023-04-07T04:05:56;11.60;99.90
7349;DHT22;13010;-33.424;-70.614;2023-04-07T04:08:44;11.20;99.90
7349;DHT22;13010;-33.424;-70.614;2023-04-07T04:11:33;11.00;99.90
7349;DHT22;13010;-33.424;-70.614;2023-04-07T04:14:22;11.00;99.90
7349;DHT22;13010;-33.424;-70.614;2023-04-07T04:17:11;10.90;99.90
7349;DHT22;13010;-33.424;-70.614;2023-04-07T04:20:02;11.10;99.90
7349;DHT22;13010;-33.424;-70.614;2023-04-07T04:22:51;11.00;99.90
7349;DHT22;13010;-33.424;-70.614;2023-04-07T04:25:40;10.90;99.90
7349;DHT22;13010;-33.424;-70.614;2023-04-07T04:28:32;10.80;99.90
7349;DHT22;13010;-33.424;-70.614;2023-04-07T04:31:21;10.60;99.90
7349;DHT22;13010;-33.424;-70.614;2023-04-07T04:34:10;10.60;99.90
7349;DHT22;13010;-33.424;-70.614;2023-04-07T04:37:05;10.50;99.90
7349;DHT22;13010;-33.424;-70.614;2023-04-07T04:39:54;10.30;99.90
7349;DHT22;13010;-33.424;-70.614;2023-04-07T04:42:43;10.30;99.90
7349;DHT22;13010;-33.424;-70.614;2023-04-07T04:45:32;10.30;99.90
7349;DHT22;13010;-33.424;-70.614;2023-04-07T04:48:21;10.30;99.90
7349;DHT22;13010;-33.424;-70.614;2023-04-07T04:51:09;10.20;99.90
7349;DHT22;13010;-33.424;-70.614;2023-04-07T04:54:00;10.20;99.90
7349;DHT22;13010;-33.424;-70.614;2023-04-07T04:56:49;10.10;99.90
7349;DHT22;13010;-33.424;-70.614;2023-04-07T04:59:38;10.10;99.90
7349;DHT22;13010;-33.424;-70.614;2023-04-07T05:02:27;10.00;99.90
7349;DHT22;13010;-33.424;-70.614;2023-04-07T05:05:16;10.10;99.90
7349;DHT22;13010;-33.424;-70.614;2023-04-07T05:08:05;10.20;99.90
7349;DHT22;13010;-33.424;-70.614;2023-04-07T05:10:56;10.10;99.90
7349;DHT22;13010;-33.424;-70.614;2023-04-07T05:13:45;10.00;99.90
7349;DHT22;13010;-33.424;-70.614;2023-04-07T05:16:34;9.90;99.90
7349;DHT22;13010;-33.424;-70.614;2023-04-07T05:19:22;9.90;99.90
7349;DHT22;13010;-33.424;-70.614;2023-04-07T05:22:12;10.00;99.90
7349;DHT22;13010;-33.424;-70.614;2023-04-07T05:25:01;10.10;99.90
7349;DHT22;13010;-33.424;-70.614;2023-04-07T05:27:51;10.10;99.90
7349;DHT22;13010;-33.424;-70.614;2023-04-07T05:30:40;10.00;99.90
7349;DHT22;13010;-33.424;-70.614;2023-04-07T05:33:29;10.00;99.90
7349;DHT22;13010;-33.424;-70.614;2023-04-07T05:36:19;10.00;99.90
7349;DHT22;13010;-33.424;-70.614;2023-04-07T05:39:08;10.00;99.90
7349;DHT22;13010;-33.424;-70.614;2023-04-07T05:41:57;10.00;99.90
7349;DHT22;13010;-33.424;-70.614;2023-04-07T05:44:48;9.80;99.90
7349;DHT22;13010;-33.424;-70.614;2023-04-07T05:47:37;9.80;99.90
7349;DHT22;13010;-33.424;-70.614;2023-04-07T05:50:26;9.80;99.90
7349;DHT22;13010;-33.424;-70.614;2023-04-07T05:53:15;9.80;99.90
7349;DHT22;13010;-33.424;-70.614;2023-04-07T05:56:04;9.90;99.90
7349;DHT22;13010;-33.424;-70.614;2023-04-07T05:58:53;9.90;99.90
7349;DHT22;13010;-33.424;-70.614;2023-04-07T06:01:44;10.00;99.90
7349;DHT22;13010;-33.424;-70.614;2023-04-07T06:04:33;10.00;99.90
7349;DHT22;13010;-33.424;-70.614;2023-04-07T06:07:24;9.80;99.90
7349;DHT22;13010;-33.424;-70.614;2023-04-07T06:10:12;9.90;99.90
7349;DHT22;13010;-33.424;-70.614;2023-04-07T06:13:01;9.90;99.90
7349;DHT22;13010;-33.424;-70.614;2023-04-07T06:15:49;9.90;99.90
7349;DHT22;13010;-33.424;-70.614;2023-04-07T06:18:39;9.90;99.90
7349;DHT22;13010;-33.424;-70.614;2023-04-07T06:21:28;9.80;99.90
7349;DHT22;13010;-33.424;-70.614;2023-04-07T06:24:17;9.70;99.90
7349;DHT22;13010;-33.424;-70.614;2023-04-07T06:27:07;9.50;99.90
7349;DHT22;13010;-33.424;-70.614;2023-04-07T06:29:59;9.40;99.90
7349;DHT22;13010;-33.424;-70.614;2023-04-07T06:32:48;9.20;99.90
7349;DHT22;13010;-33.424;-70.614;2023-04-07T06:35:39;8.90;99.90
7349;DHT22;13010;-33.424;-70.614;2023-04-07T06:38:28;8.80;99.90
7349;DHT22;13010;-33.424;-70.614;2023-04-07T06:41:18;8.60;99.90
7349;DHT22;13010;-33.424;-70.614;2023-04-07T06:44:07;8.70;99.90
7349;DHT22;13010;-33.424;-70.614;2023-04-07T06:46:56;8.70;99.90
7349;DHT22;13010;-33.424;-70.614;2023-04-07T06:49:47;8.60;99.90
7349;DHT22;13010;-33.424;-70.614;2023-04-07T06:52:37;8.50;99.90
7349;DHT22;13010;-33.424;-70.614;2023-04-07T06:55:26;8.40;99.90
7349;DHT22;13010;-33.424;-70.614;2023-04-07T06:58:15;8.30;99.90
7349;DHT22;13010;-33.424;-70.614;2023-04-07T07:01:05;8.40;99.90
7349;DHT22;13010;-33.424;-70.614;2023-04-07T07:03:54;8.40;99.90
7349;DHT22;13010;-33.424;-70.614;2023-04-07T07:06:43;8.50;99.90
7349;DHT22;13010;-33.424;-70.614;2023-04-07T07:09:33;8.30;99.90
7349;DHT22;13010;-33.424;-70.614;2023-04-07T07:12:22;8.30;99.90
7349;DHT22;13010;-33.424;-70.614;2023-04-07T07:15:13;8.20;99.90
7349;DHT22;13010;-33.424;-70.614;2023-04-07T07:18:02;8.00;99.90
7349;DHT22;13010;-33.424;-70.614;2023-04-07T07:20:50;8.00;99.90
7349;DHT22;13010;-33.424;-70.614;2023-04-07T07:23:39;7.90;99.90
7349;DHT22;13010;-33.424;-70.614;2023-04-07T07:26:29;8.00;99.90
7349;DHT22;13010;-33.424;-70.614;2023-04-07T07:29:18;8.00;99.90
7349;DHT22;13010;-33.424;-70.614;2023-04-07T07:32:07;7.90;99.90
7349;DHT22;13010;-33.424;-70.614;2023-04-07T07:34:56;7.90;99.90
7349;DHT22;13010;-33.424;-70.614;2023-04-07T07:37:47;7.80;99.90
7349;DHT22;13010;-33.424;-70.614;2023-04-07T07:40:36;7.80;99.90
7349;DHT22;13010;-33.424;-70.614;2023-04-07T07:43:26;7.90;99.90
7349;DHT22;13010;-33.424;-70.614;2023-04-07T07:46:15;8.00;99.90
7349;DHT22;13010;-33.424;-70.614;2023-04-07T07:49:03;8.10;99.90
7349;DHT22;13010;-33.424;-70.614;2023-04-07T07:51:52;8.10;99.90
7349;DHT22;13010;-33.424;-70.614;2023-04-07T07:54:44;8.10;99.90
7349;DHT22;13010;-33.424;-70.614;2023-04-07T07:57:33;8.00;99.90
7349;DHT22;13010;-33.424;-70.614;2023-04-07T08:00:23;8.00;99.90
7349;DHT22;13010;-33.424;-70.614;2023-04-07T08:03:12;8.00;99.90
7349;DHT22;13010;-33.424;-70.614;2023-04-07T08:06:02;8.10;99.90
7349;DHT22;13010;-33.424;-70.614;2023-04-07T08:08:53;8.00;99.90
7349;DHT22;13010;-33.424;-70.614;2023-04-07T08:11:41;8.00;99.90
7349;DHT22;13010;-33.424;-70.614;2023-04-07T08:14:30;7.90;99.90
7349;DHT22;13010;-33.424;-70.614;2023-04-07T08:17:21;7.80;99.90
7349;DHT22;13010;-33.424;-70.614;2023-04-07T08:20:13;7.60;99.90
7349;DHT22;13010;-33.424;-70.614;2023-04-07T08:23:02;7.40;99.90
7349;DHT22;13010;-33.424;-70.614;2023-04-07T08:25:51;7.30;99.90
7349;DHT22;13010;-33.424;-70.614;2023-04-07T08:28:39;7.10;99.90
7349;DHT22;13010;-33.424;-70.614;2023-04-07T08:31:30;7.10;99.90
7349;DHT22;13010;-33.424;-70.614;2023-04-07T08:34:22;7.20;99.90
7349;DHT22;13010;-33.424;-70.614;2023-04-07T08:37:10;7.10;99.90
7349;DHT22;13010;-33.424;-70.614;2023-04-07T08:39:59;7.00;99.90
7349;DHT22;13010;-33.424;-70.614;2023-04-07T08:42:49;7.00;99.90
7349;DHT22;13010;-33.424;-70.614;2023-04-07T08:45:39;7.10;99.90
7349;DHT22;13010;-33.424;-70.614;2023-04-07T08:48:30;7.00;99.90
7349;DHT22;13010;-33.424;-70.614;2023-04-07T08:51:27;7.00;99.90
7349;DHT22;13010;-33.424;-70.614;2023-04-07T08:54:17;6.90;99.90
7349;DHT22;13010;-33.424;-70.614;2023-04-07T08:57:10;6.80;99.90
7349;DHT22;13010;-33.424;-70.614;2023-04-07T09:00:00;6.70;99.90
7349;DHT22;13010;-33.424;-70.614;2023-04-07T09:02:51;6.70;99.90
7349;DHT22;13010;-33.424;-70.614;2023-04-07T09:05:40;6.60;99.90
7349;DHT22;13010;-33.424;-70.614;2023-04-07T09:08:32;6.50;99.90
7349;DHT22;13010;-33.424;-70.614;2023-04-07T09:11:21;6.40;99.90
7349;DHT22;13010;-33.424;-70.614;2023-04-07T09:14:11;6.40;99.90
7349;DHT22;13010;-33.424;-70.614;2023-04-07T09:17:00;6.30;99.90
7349;DHT22;13010;-33.424;-70.614;2023-04-07T09:19:49;6.40;99.90
7349;DHT22;13010;-33.424;-70.614;2023-04-07T09:22:39;6.40;99.90
7349;DHT22;13010;-33.424;-70.614;2023-04-07T09:25:32;6.10;99.90
7349;DHT22;13010;-33.424;-70.614;2023-04-07T09:28:20;6.00;99.90
7349;DHT22;13010;-33.424;-70.614;2023-04-07T09:31:09;5.90;99.90
7349;DHT22;13010;-33.424;-70.614;2023-04-07T09:33:58;5.90;99.90
7349;DHT22;13010;-33.424;-70.614;2023-04-07T09:36:46;5.90;99.90
7349;DHT22;13010;-33.424;-70.614;2023-04-07T09:39:48;5.80;99.90
7349;DHT22;13010;-33.424;-70.614;2023-04-07T09:42:47;5.70;99.90
7349;DHT22;13010;-33.424;-70.614;2023-04-07T09:45:36;5.50;99.90
7349;DHT22;13010;-33.424;-70.614;2023-04-07T09:48:25;5.50;99.90
7349;DHT22;13010;-33.424;-70.614;2023-04-07T09:51:15;5.40;99.90
7349;DHT22;13010;-33.424;-70.614;2023-04-07T09:54:04;5.40;99.90
7349;DHT22;13010;-33.424;-70.614;2023-04-07T09:56:52;5.30;99.90
7349;DHT22;13010;-33.424;-70.614;2023-04-07T09:59:47;5.40;99.90
7349;DHT22;13010;-33.424;-70.614;2023-04-07T10:02:36;5.40;99.90
7349;DHT22;13010;-33.424;-70.614;2023-04-07T10:05:25;5.40;99.90
7349;DHT22;13010;-33.424;-70.614;2023-04-07T10:08:15;5.50;99.90
7349;DHT22;13010;-33.424;-70.614;2023-04-07T10:11:05;5.50;99.90
7349;DHT22;13010;-33.424;-70.614;2023-04-07T10:13:54;5.60;99.90
7349;DHT22;13010;-33.424;-70.614;2023-04-07T10:16:46;5.70;99.90
7349;DHT22;13010;-33.424;-70.614;2023-04-07T10:19:37;5.60;99.90
7349;DHT22;13010;-33.424;-70.614;2023-04-07T10:22:27;5.50;99.90
7349;DHT22;13010;-33.424;-70.614;2023-04-07T10:25:19;5.40;99.90
7349;DHT22;13010;-33.424;-70.614;2023-04-07T10:28:12;5.30;99.90
7349;DHT22;13010;-33.424;-70.614;2023-04-07T10:31:02;5.20;99.90
7349;DHT22;13010;-33.424;-70.614;2023-04-07T10:33:53;5.20;99.90
7349;DHT22;13010;-33.424;-70.614;2023-04-07T10:37:10;4.90;99.90
7349;DHT22;13010;-33.424;-70.614;2023-04-07T10:40:29;4.70;99.90
7349;DHT22;13010;-33.424;-70.614;2023-04-07T10:43:37;4.70;99.90
7349;DHT22;13010;-33.424;-70.614;2023-04-07T10:50:16;4.50;99.90
7349;DHT22;13010;-33.424;-70.614;2023-04-07T10:53:08;4.40;99.90
7349;DHT22;13010;-33.424;-70.614;2023-04-07T10:55:57;4.40;99.90
7349;DHT22;13010;-33.424;-70.614;2023-04-07T10:59:13;4.50;99.90
7349;DHT22;13010;-33.424;-70.614;2023-04-07T11:02:29;4.40;99.90
7349;DHT22;13010;-33.424;-70.614;2023-04-07T11:05:35;4.60;99.90
7349;DHT22;13010;-33.424;-70.614;2023-04-07T11:08:33;4.60;99.90
7349;DHT22;13010;-33.424;-70.614;2023-04-07T11:11:41;4.60;99.90
7349;DHT22;13010;-33.424;-70.614;2023-04-07T11:14:33;4.60;99.90
7349;DHT22;13010;-33.424;-70.614;2023-04-07T11:17:25;4.70;99.90
7349;DHT22;13010;-33.424;-70.614;2023-04-07T11:20:14;4.90;99.90
7349;DHT22;13010;-33.424;-70.614;2023-04-07T11:23:04;4.90;99.90
7349;DHT22;13010;-33.424;-70.614;2023-04-07T11:26:00;5.10;99.90
7349;DHT22;13010;-33.424;-70.614;2023-04-07T11:28:49;5.30;99.90
7349;DHT22;13010;-33.424;-70.614;2023-04-07T11:31:38;5.50;99.90
7349;DHT22;13010;-33.424;-70.614;2023-04-07T11:34:29;5.60;99.90
7349;DHT22;13010;-33.424;-70.614;2023-04-07T11:37:22;6.30;99.90
7349;DHT22;13010;-33.424;-70.614;2023-04-07T11:40:31;10.70;99.90
7349;DHT22;13010;-33.424;-70.614;2023-04-07T11:43:22;13.60;99.90
7349;DHT22;13010;-33.424;-70.614;2023-04-07T11:46:12;15.90;99.90
7349;DHT22;13010;-33.424;-70.614;2023-04-07T11:49:12;17.40;99.90
7349;DHT22;13010;-33.424;-70.614;2023-04-07T11:52:03;18.80;99.90
7349;DHT22;13010;-33.424;-70.614;2023-04-07T11:54:52;18.90;99.90
7349;DHT22;13010;-33.424;-70.614;2023-04-07T11:57:43;19.50;99.90
7349;DHT22;13010;-33.424;-70.614;2023-04-07T12:00:31;20.80;99.90
7349;DHT22;13010;-33.424;-70.614;2023-04-07T12:03:20;22.70;99.90
7349;DHT22;13010;-33.424;-70.614;2023-04-07T12:06:10;23.60;99.90
7349;DHT22;13010;-33.424;-70.614;2023-04-07T12:09:00;25.00;99.90
7349;DHT22;13010;-33.424;-70.614;2023-04-07T12:11:49;26.00;99.90
7349;DHT22;13010;-33.424;-70.614;2023-04-07T12:14:40;25.90;99.90
7349;DHT22;13010;-33.424;-70.614;2023-04-07T12:17:29;25.60;99.90
7349;DHT22;13010;-33.424;-70.614;2023-04-07T12:20:18;26.40;99.90
7349;DHT22;13010;-33.424;-70.614;2023-04-07T12:23:07;26.50;99.90
7349;DHT22;13010;-33.424;-70.614;2023-04-07T12:25:56;26.50;99.90
7349;DHT22;13010;-33.424;-70.614;2023-04-07T12:28:45;27.00;99.90
7349;DHT22;13010;-33.424;-70.614;2023-04-07T12:31:36;27.70;96.30
7349;DHT22;13010;-33.424;-70.614;2023-04-07T12:34:24;29.20;91.60
7349;DHT22;13010;-33.424;-70.614;2023-04-07T12:37:13;30.30;91.20
7349;DHT22;13010;-33.424;-70.614;2023-04-07T12:40:02;30.90;84.00
7349;DHT22;13010;-33.424;-70.614;2023-04-07T12:43:02;30.80;54.40
7349;DHT22;13010;-33.424;-70.614;2023-04-07T12:45:51;31.80;71.30
7349;DHT22;13010;-33.424;-70.614;2023-04-07T12:48:42;31.90;59.90
7349;DHT22;13010;-33.424;-70.614;2023-04-07T12:51:31;31.60;51.00
7349;DHT22;13010;-33.424;-70.614;2023-04-07T12:54:20;31.40;48.50
7349;DHT22;13010;-33.424;-70.614;2023-04-07T12:57:09;33.30;40.70
7349;DHT22;13010;-33.424;-70.614;2023-04-07T12:59:58;35.00;32.00
7349;DHT22;13010;-33.424;-70.614;2023-04-07T13:02:47;35.60;21.60
7349;DHT22;13010;-33.424;-70.614;2023-04-07T13:05:42;36.50;18.60
7349;DHT22;13010;-33.424;-70.614;2023-04-07T13:08:32;35.90;18.80
7349;DHT22;13010;-33.424;-70.614;2023-04-07T13:11:21;38.50;13.80
7349;DHT22;13010;-33.424;-70.614;2023-04-07T13:14:09;37.60;10.20
7349;DHT22;13010;-33.424;-70.614;2023-04-07T13:16:58;37.90;10.90
7349;DHT22;13010;-33.424;-70.614;2023-04-07T13:19:47;38.70;8.40
7349;DHT22;13010;-33.424;-70.614;2023-04-07T13:22:37;38.50;6.00
7349;DHT22;13010;-33.424;-70.614;2023-04-07T13:25:27;39.20;4.40
7349;DHT22;13010;-33.424;-70.614;2023-04-07T13:28:15;39.50;4.80
7349;DHT22;13010;-33.424;-70.614;2023-04-07T13:31:06;38.80;3.10
7349;DHT22;13010;-33.424;-70.614;2023-04-07T13:33:56;39.40;2.70
7349;DHT22;13010;-33.424;-70.614;2023-04-07T13:36:45;40.40;3.40
7349;DHT22;13010;-33.424;-70.614;2023-04-07T13:39:36;42.30;1.00
7349;DHT22;13010;-33.424;-70.614;2023-04-07T13:42:25;42.30;1.00
7349;DHT22;13010;-33.424;-70.614;2023-04-07T13:45:14;41.70;1.00
7349;DHT22;13010;-33.424;-70.614;2023-04-07T13:48:03;41.10;1.00
7349;DHT22;13010;-33.424;-70.614;2023-04-07T13:50:51;41.10;1.00
7349;DHT22;13010;-33.424;-70.614;2023-04-07T13:53:41;39.00;1.00
7349;DHT22;13010;-33.424;-70.614;2023-04-07T13:56:34;37.90;1.00
7349;DHT22;13010;-33.424;-70.614;2023-04-07T13:59:24;39.20;1.00
7349;DHT22;13010;-33.424;-70.614;2023-04-07T14:02:13;40.50;1.00
7349;DHT22;13010;-33.424;-70.614;2023-04-07T14:05:02;39.70;1.00
7349;DHT22;13010;-33.424;-70.614;2023-04-07T14:07:50;42.10;1.00
7349;DHT22;13010;-33.424;-70.614;2023-04-07T14:10:39;43.50;1.00
7349;DHT22;13010;-33.424;-70.614;2023-04-07T14:13:31;44.10;1.00
7349;DHT22;13010;-33.424;-70.614;2023-04-07T14:16:20;42.30;1.00
7349;DHT22;13010;-33.424;-70.614;2023-04-07T14:19:09;44.10;1.00
7349;DHT22;13010;-33.424;-70.614;2023-04-07T14:21:58;44.90;1.00
7349;DHT22;13010;-33.424;-70.614;2023-04-07T14:24:47;45.80;1.00
7349;DHT22;13010;-33.424;-70.614;2023-04-07T14:27:37;43.90;1.00
7349;DHT22;13010;-33.424;-70.614;2023-04-07T14:30:28;47.10;1.00
7349;DHT22;13010;-33.424;-70.614;2023-04-07T14:33:16;45.80;1.00
7349;DHT22;13010;-33.424;-70.614;2023-04-07T14:36:05;44.40;1.00
7349;DHT22;13010;-33.424;-70.614;2023-04-07T14:38:54;44.00;1.00
7349;DHT22;13010;-33.424;-70.614;2023-04-07T14:41:43;45.90;1.00
7349;DHT22;13010;-33.424;-70.614;2023-04-07T14:44:33;47.60;1.00
7349;DHT22;13010;-33.424;-70.614;2023-04-07T14:47:24;49.10;1.00
7349;DHT22;13010;-33.424;-70.614;2023-04-07T14:50:13;46.40;1.00
7349;DHT22;13010;-33.424;-70.614;2023-04-07T14:53:02;47.80;1.00
7349;DHT22;13010;-33.424;-70.614;2023-04-07T14:55:52;45.40;1.00
7349;DHT22;13010;-33.424;-70.614;2023-04-07T14:58:41;48.30;1.00
7349;DHT22;13010;-33.424;-70.614;2023-04-07T15:01:30;47.80;1.00
7349;DHT22;13010;-33.424;-70.614;2023-04-07T15:04:21;48.20;1.00
7349;DHT22;13010;-33.424;-70.614;2023-04-07T15:07:09;44.80;1.00
7349;DHT22;13010;-33.424;-70.614;2023-04-07T15:09:58;44.80;1.00
7349;DHT22;13010;-33.424;-70.614;2023-04-07T15:12:47;44.30;1.00
7349;DHT22;13010;-33.424;-70.614;2023-04-07T15:15:35;47.20;1.00
7349;DHT22;13010;-33.424;-70.614;2023-04-07T15:18:25;46.70;1.00
7349;DHT22;13010;-33.424;-70.614;2023-04-07T15:21:15;47.60;1.00
7349;DHT22;13010;-33.424;-70.614;2023-04-07T15:24:04;49.30;1.00
7349;DHT22;13010;-33.424;-70.614;2023-04-07T15:26:53;48.20;1.00
7349;DHT22;13010;-33.424;-70.614;2023-04-07T15:29:41;49.30;1.00
7349;DHT22;13010;-33.424;-70.614;2023-04-07T15:32:31;48.30;1.00
7349;DHT22;13010;-33.424;-70.614;2023-04-07T15:35:21;45.30;1.00
7349;DHT22;13010;-33.424;-70.614;2023-04-07T15:38:14;42.30;1.00
7349;DHT22;13010;-33.424;-70.614;2023-04-07T15:41:05;44.00;1.00
7349;DHT22;13010;-33.424;-70.614;2023-04-07T15:43:54;41.50;1.00
7349;DHT22;13010;-33.424;-70.614;2023-04-07T15:46:43;39.80;1.00
7349;DHT22;13010;-33.424;-70.614;2023-04-07T15:49:32;37.80;1.00
7349;DHT22;13010;-33.424;-70.614;2023-04-07T15:52:24;36.20;1.00
7349;DHT22;13010;-33.424;-70.614;2023-04-07T15:55:16;34.60;1.00
7349;DHT22;13010;-33.424;-70.614;2023-04-07T15:58:05;33.40;1.00
7349;DHT22;13010;-33.424;-70.614;2023-04-07T16:00:53;30.90;2.10
7349;DHT22;13010;-33.424;-70.614;2023-04-07T16:03:42;31.00;5.00
7349;DHT22;13010;-33.424;-70.614;2023-04-07T16:06:33;32.90;4.00
7349;DHT22;13010;-33.424;-70.614;2023-04-07T16:09:22;38.50;1.00
7349;DHT22;13010;-33.424;-70.614;2023-04-07T16:12:13;41.20;1.00
7349;DHT22;13010;-33.424;-70.614;2023-04-07T16:15:03;42.30;1.00
7349;DHT22;13010;-33.424;-70.614;2023-04-07T16:17:51;41.70;1.00
7349;DHT22;13010;-33.424;-70.614;2023-04-07T16:20:41;44.90;1.00
7349;DHT22;13010;-33.424;-70.614;2023-04-07T16:23:30;46.50;1.00
7349;DHT22;13010;-33.424;-70.614;2023-04-07T16:26:21;45.90;1.00
7349;DHT22;13010;-33.424;-70.614;2023-04-07T16:29:12;47.30;1.00
7349;DHT22;13010;-33.424;-70.614;2023-04-07T16:32:01;47.50;1.00
7349;DHT22;13010;-33.424;-70.614;2023-04-07T16:34:50;47.60;1.00
7349;DHT22;13010;-33.424;-70.614;2023-04-07T16:37:39;46.30;1.00
7349;DHT22;13010;-33.424;-70.614;2023-04-07T16:40:28;45.60;1.00
7349;DHT22;13010;-33.424;-70.614;2023-04-07T16:43:17;46.20;1.00
7349;DHT22;13010;-33.424;-70.614;2023-04-07T16:46:08;46.20;1.00
7349;DHT22;13010;-33.424;-70.614;2023-04-07T16:48:56;45.00;1.00
7349;DHT22;13010;-33.424;-70.614;2023-04-07T16:51:48;45.20;1.00
7349;DHT22;13010;-33.424;-70.614;2023-04-07T16:54:37;45.20;1.00
7349;DHT22;13010;-33.424;-70.614;2023-04-07T16:57:26;43.60;1.00
7349;DHT22;13010;-33.424;-70.614;2023-04-07T17:00:16;42.10;1.00
7349;DHT22;13010;-33.424;-70.614;2023-04-07T17:03:11;40.20;1.00
7349;DHT22;13010;-33.424;-70.614;2023-04-07T17:06:00;34.80;1.00
7349;DHT22;13010;-33.424;-70.614;2023-04-07T17:08:50;29.70;1.00
7349;DHT22;13010;-33.424;-70.614;2023-04-07T17:11:41;26.80;5.20
7349;DHT22;13010;-33.424;-70.614;2023-04-07T17:14:30;25.70;10.50
7349;DHT22;13010;-33.424;-70.614;2023-04-07T17:17:19;24.80;18.00
7349;DHT22;13010;-33.424;-70.614;2023-04-07T17:20:13;24.40;30.00
7349;DHT22;13010;-33.424;-70.614;2023-04-07T17:23:02;24.30;33.20
7349;DHT22;13010;-33.424;-70.614;2023-04-07T17:25:51;24.60;34.80
7349;DHT22;13010;-33.424;-70.614;2023-04-07T17:28:40;26.60;36.10
7349;DHT22;13010;-33.424;-70.614;2023-04-07T17:31:28;30.80;19.60
7349;DHT22;13010;-33.424;-70.614;2023-04-07T17:34:19;30.90;15.20
7349;DHT22;13010;-33.424;-70.614;2023-04-07T17:37:09;28.60;17.40